Аэропорт: Курумоч. Самара

ICAO: UWWW

METAR:
2021-04-21 21:30:00
UWWW 212130Z 17006MPS 9999 -RA OVC009 04/03 Q1024 R15/290150 NOSIG RMK QFE756/1008
METAR:
2021-04-21 19:56:00
TAF UWWW 211956Z 2121/2221 16006G13MPS 6000 BKN007 TX12/2211Z TN03/2121Z TEMPO 2121/2206 0300 -RA FG VV003 BECMG 2206/2207 BKN016 BECMG 2215/2217 15003G09MPS